You are not logged in, Click here to log in
Svalbard Airport, Longyear / ENSB Longyearbyen
ICAO: ENSB Country: Longyearbyen
Latitude: 78.2461 Longitude: 15.4656
Total Arrivals: 0 Total Departures: 2
Latest Arrival: (-). Latest Departure: FS25 (ENSB-ENTC)ALAN. LIU
Scenery: http://en.wikipedia.org/wiki/R%C3%B8st_Airport
METAR : ENSB 131020Z 15024KT 9999 DRSN BKN060 M05/M11 Q0999 TEMPO 14025G35KT RMK WIND 1400FT 13024G38KT

Svalbard Airport, Longyear

You are accessing this site from IP address 100.26.176.182. Virtual Airline. CMS by phpVMS.Website designed by Zumeweb and edited by Theo Bearman.
There is 0 User(s) Online: | and 12 Guest(s) Online.
All information on this site is for fight simulation purposes only. This site is for flight logging for pilots of Virtual Airline&模擬飛行論壇 FlySim only.